sensor_id;sensor_type;location;lat;lon;timestamp;P1;durP1;ratioP1;P2;durP2;ratioP2
19235;SDS011;9752;54.270;12.470;2024-03-25T00:02:19;10.93;;;9.57;;
19235;SDS011;9752;54.270;12.470;2024-03-25T00:07:22;12.13;;;9.10;;
19235;SDS011;9752;54.270;12.470;2024-03-25T00:12:23;14.53;;;9.57;;
19235;SDS011;9752;54.270;12.470;2024-03-25T00:17:25;12.77;;;9.13;;
19235;SDS011;9752;54.270;12.470;2024-03-25T00:22:28;12.53;;;9.03;;
19235;SDS011;9752;54.270;12.470;2024-03-25T00:27:30;14.47;;;10.63;;
19235;SDS011;9752;54.270;12.470;2024-03-25T00:32:31;13.13;;;9.90;;
19235;SDS011;9752;54.270;12.470;2024-03-25T00:37:34;14.73;;;9.77;;
19235;SDS011;9752;54.270;12.470;2024-03-25T00:42:36;19.43;;;11.30;;
19235;SDS011;9752;54.270;12.470;2024-03-25T00:47:37;20.43;;;12.17;;
19235;SDS011;9752;54.270;12.470;2024-03-25T00:52:40;23.93;;;13.53;;
19235;SDS011;9752;54.270;12.470;2024-03-25T00:57:42;22.20;;;13.63;;
19235;SDS011;9752;54.270;12.470;2024-03-25T01:02:43;25.67;;;13.83;;
19235;SDS011;9752;54.270;12.470;2024-03-25T01:07:46;30.40;;;14.63;;
19235;SDS011;9752;54.270;12.470;2024-03-25T01:12:49;25.30;;;12.97;;
19235;SDS011;9752;54.270;12.470;2024-03-25T01:17:50;28.90;;;14.50;;
19235;SDS011;9752;54.270;12.470;2024-03-25T01:22:54;32.63;;;15.17;;
19235;SDS011;9752;54.270;12.470;2024-03-25T01:27:55;35.03;;;16.33;;
19235;SDS011;9752;54.270;12.470;2024-03-25T01:32:57;28.10;;;14.57;;
19235;SDS011;9752;54.270;12.470;2024-03-25T01:38:00;41.57;;;19.70;;
19235;SDS011;9752;54.270;12.470;2024-03-25T01:43:02;34.80;;;15.60;;
19235;SDS011;9752;54.270;12.470;2024-03-25T01:48:06;34.13;;;16.70;;
19235;SDS011;9752;54.270;12.470;2024-03-25T01:53:11;35.30;;;16.93;;
19235;SDS011;9752;54.270;12.470;2024-03-25T01:58:15;40.30;;;18.27;;
19235;SDS011;9752;54.270;12.470;2024-03-25T02:03:17;43.57;;;18.67;;
19235;SDS011;9752;54.270;12.470;2024-03-25T02:08:20;32.50;;;17.80;;
19235;SDS011;9752;54.270;12.470;2024-03-25T02:13:22;35.17;;;17.30;;
19235;SDS011;9752;54.270;12.470;2024-03-25T02:18:24;39.27;;;20.83;;
19235;SDS011;9752;54.270;12.470;2024-03-25T02:23:27;34.40;;;19.30;;
19235;SDS011;9752;54.270;12.470;2024-03-25T02:28:31;31.40;;;18.33;;
19235;SDS011;9752;54.270;12.470;2024-03-25T02:33:32;43.03;;;25.03;;
19235;SDS011;9752;54.270;12.470;2024-03-25T02:38:34;38.90;;;22.77;;
19235;SDS011;9752;54.270;12.470;2024-03-25T02:43:37;37.70;;;21.93;;
19235;SDS011;9752;54.270;12.470;2024-03-25T02:48:39;45.80;;;24.87;;
19235;SDS011;9752;54.270;12.470;2024-03-25T02:53:40;44.47;;;26.43;;
19235;SDS011;9752;54.270;12.470;2024-03-25T02:58:43;21.17;;;14.37;;
19235;SDS011;9752;54.270;12.470;2024-03-25T03:03:45;15.63;;;10.87;;
19235;SDS011;9752;54.270;12.470;2024-03-25T03:08:46;10.93;;;9.83;;
19235;SDS011;9752;54.270;12.470;2024-03-25T03:13:49;13.40;;;10.47;;
19235;SDS011;9752;54.270;12.470;2024-03-25T03:18:51;11.73;;;10.63;;
19235;SDS011;9752;54.270;12.470;2024-03-25T03:23:53;17.00;;;12.17;;
19235;SDS011;9752;54.270;12.470;2024-03-25T03:28:56;14.53;;;10.80;;
19235;SDS011;9752;54.270;12.470;2024-03-25T03:33:57;15.33;;;11.20;;
19235;SDS011;9752;54.270;12.470;2024-03-25T03:38:59;11.20;;;10.03;;
19235;SDS011;9752;54.270;12.470;2024-03-25T03:44:02;16.07;;;11.20;;
19235;SDS011;9752;54.270;12.470;2024-03-25T03:49:04;13.80;;;11.23;;
19235;SDS011;9752;54.270;12.470;2024-03-25T03:54:05;12.57;;;10.73;;
19235;SDS011;9752;54.270;12.470;2024-03-25T03:59:08;15.63;;;12.67;;
19235;SDS011;9752;54.270;12.470;2024-03-25T04:04:11;11.47;;;10.17;;
19235;SDS011;9752;54.270;12.470;2024-03-25T04:09:12;15.90;;;12.33;;
19235;SDS011;9752;54.270;12.470;2024-03-25T04:14:15;16.37;;;11.63;;
19235;SDS011;9752;54.270;12.470;2024-03-25T04:19:17;11.67;;;10.40;;
19235;SDS011;9752;54.270;12.470;2024-03-25T04:24:19;23.33;;;16.30;;
19235;SDS011;9752;54.270;12.470;2024-03-25T04:29:22;34.50;;;19.73;;
19235;SDS011;9752;54.270;12.470;2024-03-25T04:34:23;35.37;;;22.27;;
19235;SDS011;9752;54.270;12.470;2024-03-25T04:39:25;37.80;;;24.87;;
19235;SDS011;9752;54.270;12.470;2024-03-25T04:44:27;43.63;;;28.70;;
19235;SDS011;9752;54.270;12.470;2024-03-25T04:49:27;53.73;;;31.93;;
19235;SDS011;9752;54.270;12.470;2024-03-25T04:54:28;60.73;;;34.57;;
19235;SDS011;9752;54.270;12.470;2024-03-25T04:59:30;57.87;;;33.73;;
19235;SDS011;9752;54.270;12.470;2024-03-25T05:04:31;67.67;;;37.23;;
19235;SDS011;9752;54.270;12.470;2024-03-25T05:09:31;73.97;;;39.83;;
19235;SDS011;9752;54.270;12.470;2024-03-25T05:14:33;97.60;;;43.17;;
19235;SDS011;9752;54.270;12.470;2024-03-25T05:19:34;83.23;;;40.03;;
19235;SDS011;9752;54.270;12.470;2024-03-25T05:24:35;69.13;;;34.93;;
19235;SDS011;9752;54.270;12.470;2024-03-25T05:29:37;85.00;;;40.50;;
19235;SDS011;9752;54.270;12.470;2024-03-25T05:34:37;69.87;;;37.80;;
19235;SDS011;9752;54.270;12.470;2024-03-25T05:39:38;77.43;;;37.47;;
19235;SDS011;9752;54.270;12.470;2024-03-25T05:44:40;78.47;;;37.97;;
19235;SDS011;9752;54.270;12.470;2024-03-25T05:49:41;81.60;;;36.33;;
19235;SDS011;9752;54.270;12.470;2024-03-25T05:54:42;64.47;;;32.17;;
19235;SDS011;9752;54.270;12.470;2024-03-25T05:59:44;60.50;;;33.27;;
19235;SDS011;9752;54.270;12.470;2024-03-25T06:04:44;67.30;;;32.50;;
19235;SDS011;9752;54.270;12.470;2024-03-25T06:09:45;49.57;;;25.97;;
19235;SDS011;9752;54.270;12.470;2024-03-25T06:14:47;55.87;;;28.43;;
19235;SDS011;9752;54.270;12.470;2024-03-25T06:19:48;53.10;;;26.70;;
19235;SDS011;9752;54.270;12.470;2024-03-25T06:24:48;53.63;;;27.70;;
19235;SDS011;9752;54.270;12.470;2024-03-25T06:29:50;56.53;;;26.47;;
19235;SDS011;9752;54.270;12.470;2024-03-25T06:34:51;44.00;;;23.83;;
19235;SDS011;9752;54.270;12.470;2024-03-25T06:39:52;56.57;;;28.07;;
19235;SDS011;9752;54.270;12.470;2024-03-25T06:44:54;52.60;;;27.53;;
19235;SDS011;9752;54.270;12.470;2024-03-25T06:49:57;47.80;;;26.17;;
19235;SDS011;9752;54.270;12.470;2024-03-25T06:54:58;49.50;;;23.57;;
19235;SDS011;9752;54.270;12.470;2024-03-25T07:00:00;51.93;;;25.60;;
19235;SDS011;9752;54.270;12.470;2024-03-25T07:05:00;52.30;;;26.40;;
19235;SDS011;9752;54.270;12.470;2024-03-25T07:10:01;51.70;;;28.40;;
19235;SDS011;9752;54.270;12.470;2024-03-25T07:15:04;25.00;;;14.13;;
19235;SDS011;9752;54.270;12.470;2024-03-25T07:20:06;17.20;;;12.20;;
19235;SDS011;9752;54.270;12.470;2024-03-25T07:25:07;14.80;;;11.13;;
19235;SDS011;9752;54.270;12.470;2024-03-25T07:30:11;14.37;;;11.50;;
19235;SDS011;9752;54.270;12.470;2024-03-25T07:35:11;17.93;;;12.60;;
19235;SDS011;9752;54.270;12.470;2024-03-25T07:40:12;15.43;;;12.30;;
19235;SDS011;9752;54.270;12.470;2024-03-25T07:45:14;17.33;;;12.97;;
19235;SDS011;9752;54.270;12.470;2024-03-25T07:50:15;21.07;;;12.93;;
19235;SDS011;9752;54.270;12.470;2024-03-25T07:55:16;33.10;;;18.07;;
19235;SDS011;9752;54.270;12.470;2024-03-25T08:00:18;41.77;;;24.43;;
19235;SDS011;9752;54.270;12.470;2024-03-25T08:05:19;47.60;;;23.33;;
19235;SDS011;9752;54.270;12.470;2024-03-25T08:10:19;36.13;;;21.50;;
19235;SDS011;9752;54.270;12.470;2024-03-25T08:15:21;17.77;;;13.03;;
19235;SDS011;9752;54.270;12.470;2024-03-25T08:20:22;13.47;;;10.90;;
19235;SDS011;9752;54.270;12.470;2024-03-25T08:25:23;9.37;;;8.27;;
19235;SDS011;9752;54.270;12.470;2024-03-25T08:30:25;9.70;;;8.70;;
19235;SDS011;9752;54.270;12.470;2024-03-25T08:35:25;9.10;;;8.30;;
19235;SDS011;9752;54.270;12.470;2024-03-25T08:40:26;7.90;;;7.10;;
19235;SDS011;9752;54.270;12.470;2024-03-25T08:45:28;8.70;;;7.70;;
19235;SDS011;9752;54.270;12.470;2024-03-25T08:50:28;6.90;;;6.40;;
19235;SDS011;9752;54.270;12.470;2024-03-25T08:55:29;4.97;;;4.53;;
19235;SDS011;9752;54.270;12.470;2024-03-25T09:00:31;4.53;;;4.13;;
19235;SDS011;9752;54.270;12.470;2024-03-25T09:05:32;4.50;;;4.20;;
19235;SDS011;9752;54.270;12.470;2024-03-25T09:10:33;4.30;;;4.00;;
19235;SDS011;9752;54.270;12.470;2024-03-25T09:16:08;4.90;;;4.60;;
19235;SDS011;9752;54.270;12.470;2024-03-25T09:21:08;5.10;;;4.87;;
19235;SDS011;9752;54.270;12.470;2024-03-25T09:26:09;5.33;;;4.93;;
19235;SDS011;9752;54.270;12.470;2024-03-25T09:31:12;4.77;;;4.37;;
19235;SDS011;9752;54.270;12.470;2024-03-25T09:36:12;4.90;;;4.50;;
19235;SDS011;9752;54.270;12.470;2024-03-25T09:41:13;7.50;;;5.33;;
19235;SDS011;9752;54.270;12.470;2024-03-25T09:46:15;6.63;;;5.87;;
19235;SDS011;9752;54.270;12.470;2024-03-25T09:51:16;7.13;;;6.50;;
19235;SDS011;9752;54.270;12.470;2024-03-25T09:56:17;6.73;;;6.13;;
19235;SDS011;9752;54.270;12.470;2024-03-25T10:01:19;9.00;;;7.57;;
19235;SDS011;9752;54.270;12.470;2024-03-25T10:06:19;16.87;;;8.50;;
19235;SDS011;9752;54.270;12.470;2024-03-25T10:11:20;12.37;;;7.90;;
19235;SDS011;9752;54.270;12.470;2024-03-25T10:16:22;7.90;;;7.10;;
19235;SDS011;9752;54.270;12.470;2024-03-25T10:21:23;9.10;;;6.60;;
19235;SDS011;9752;54.270;12.470;2024-03-25T10:26:26;8.83;;;6.13;;
19235;SDS011;9752;54.270;12.470;2024-03-25T10:31:29;8.73;;;6.77;;
19235;SDS011;9752;54.270;12.470;2024-03-25T10:36:31;7.00;;;6.40;;
19235;SDS011;9752;54.270;12.470;2024-03-25T10:41:32;10.40;;;7.77;;
19235;SDS011;9752;54.270;12.470;2024-03-25T10:46:37;12.30;;;9.67;;
19235;SDS011;9752;54.270;12.470;2024-03-25T10:51:38;11.23;;;8.63;;
19235;SDS011;9752;54.270;12.470;2024-03-25T10:56:40;12.73;;;9.10;;
19235;SDS011;9752;54.270;12.470;2024-03-25T11:01:43;20.33;;;10.53;;
19235;SDS011;9752;54.270;12.470;2024-03-25T11:06:43;16.57;;;9.77;;
19235;SDS011;9752;54.270;12.470;2024-03-25T11:11:44;14.83;;;8.60;;
19235;SDS011;9752;54.270;12.470;2024-03-25T11:16:52;13.77;;;9.33;;
19235;SDS011;9752;54.270;12.470;2024-03-25T11:21:52;10.27;;;7.17;;
19235;SDS011;9752;54.270;12.470;2024-03-25T11:26:53;9.00;;;7.53;;
19235;SDS011;9752;54.270;12.470;2024-03-25T11:31:55;11.50;;;8.23;;
19235;SDS011;9752;54.270;12.470;2024-03-25T11:37:03;7.83;;;7.03;;
19235;SDS011;9752;54.270;12.470;2024-03-25T11:42:04;6.67;;;6.03;;
19235;SDS011;9752;54.270;12.470;2024-03-25T11:47:07;6.47;;;5.90;;
19235;SDS011;9752;54.270;12.470;2024-03-25T11:52:08;6.60;;;6.00;;
19235;SDS011;9752;54.270;12.470;2024-03-25T11:57:09;6.33;;;5.83;;
19235;SDS011;9752;54.270;12.470;2024-03-25T12:02:11;6.77;;;6.30;;
19235;SDS011;9752;54.270;12.470;2024-03-25T12:07:12;7.47;;;6.77;;
19235;SDS011;9752;54.270;12.470;2024-03-25T12:12:14;8.13;;;6.20;;
19235;SDS011;9752;54.270;12.470;2024-03-25T12:17:16;7.13;;;6.57;;
19235;SDS011;9752;54.270;12.470;2024-03-25T12:22:18;10.60;;;7.17;;
19235;SDS011;9752;54.270;12.470;2024-03-25T12:27:19;7.93;;;7.33;;
19235;SDS011;9752;54.270;12.470;2024-03-25T12:32:21;8.47;;;7.80;;
19235;SDS011;9752;54.270;12.470;2024-03-25T12:37:22;9.47;;;8.87;;
19235;SDS011;9752;54.270;12.470;2024-03-25T12:42:22;8.40;;;7.80;;
19235;SDS011;9752;54.270;12.470;2024-03-25T12:47:24;8.50;;;8.00;;
19235;SDS011;9752;54.270;12.470;2024-03-25T12:52:25;9.03;;;8.63;;
19235;SDS011;9752;54.270;12.470;2024-03-25T12:57:26;9.77;;;9.13;;
19235;SDS011;9752;54.270;12.470;2024-03-25T13:02:28;9.43;;;9.03;;
19235;SDS011;9752;54.270;12.470;2024-03-25T13:07:29;8.83;;;8.33;;
19235;SDS011;9752;54.270;12.470;2024-03-25T13:12:29;9.37;;;8.77;;
19235;SDS011;9752;54.270;12.470;2024-03-25T13:17:31;10.20;;;9.60;;
19235;SDS011;9752;54.270;12.470;2024-03-25T13:22:32;10.37;;;9.70;;
19235;SDS011;9752;54.270;12.470;2024-03-25T13:27:33;10.57;;;9.90;;
19235;SDS011;9752;54.270;12.470;2024-03-25T13:32:35;11.63;;;10.83;;
19235;SDS011;9752;54.270;12.470;2024-03-25T13:37:35;13.10;;;12.40;;
19235;SDS011;9752;54.270;12.470;2024-03-25T13:42:36;12.07;;;11.50;;
19235;SDS011;9752;54.270;12.470;2024-03-25T13:47:38;12.57;;;11.90;;
19235;SDS011;9752;54.270;12.470;2024-03-25T13:52:39;13.77;;;13.27;;
19235;SDS011;9752;54.270;12.470;2024-03-25T13:57:39;14.50;;;13.73;;
19235;SDS011;9752;54.270;12.470;2024-03-25T14:02:41;14.13;;;13.53;;
19235;SDS011;9752;54.270;12.470;2024-03-25T14:07:42;14.30;;;13.70;;
19235;SDS011;9752;54.270;12.470;2024-03-25T14:12:42;13.97;;;13.07;;
19235;SDS011;9752;54.270;12.470;2024-03-25T14:17:45;14.87;;;13.60;;
19235;SDS011;9752;54.270;12.470;2024-03-25T14:22:46;13.53;;;12.83;;
19235;SDS011;9752;54.270;12.470;2024-03-25T14:27:46;13.07;;;12.30;;
19235;SDS011;9752;54.270;12.470;2024-03-25T14:32:48;12.83;;;12.23;;
19235;SDS011;9752;54.270;12.470;2024-03-25T14:37:49;13.77;;;12.43;;
19235;SDS011;9752;54.270;12.470;2024-03-25T14:42:50;12.17;;;11.47;;
19235;SDS011;9752;54.270;12.470;2024-03-25T14:47:52;12.37;;;11.77;;
19235;SDS011;9752;54.270;12.470;2024-03-25T14:52:52;13.63;;;12.80;;
19235;SDS011;9752;54.270;12.470;2024-03-25T14:57:53;9.97;;;9.47;;
19235;SDS011;9752;54.270;12.470;2024-03-25T15:02:55;12.50;;;11.50;;
19235;SDS011;9752;54.270;12.470;2024-03-25T15:07:56;12.87;;;12.13;;
19235;SDS011;9752;54.270;12.470;2024-03-25T15:12:56;12.43;;;11.47;;
19235;SDS011;9752;54.270;12.470;2024-03-25T15:17:58;12.57;;;11.97;;
19235;SDS011;9752;54.270;12.470;2024-03-25T15:22:59;11.47;;;10.63;;
19235;SDS011;9752;54.270;12.470;2024-03-25T15:27:59;10.23;;;9.53;;
19235;SDS011;9752;54.270;12.470;2024-03-25T15:33:02;11.13;;;10.23;;
19235;SDS011;9752;54.270;12.470;2024-03-25T15:38:02;11.07;;;10.37;;
19235;SDS011;9752;54.270;12.470;2024-03-25T15:43:03;12.03;;;11.33;;
19235;SDS011;9752;54.270;12.470;2024-03-25T15:48:06;14.90;;;13.60;;
19235;SDS011;9752;54.270;12.470;2024-03-25T15:53:07;14.80;;;13.80;;
19235;SDS011;9752;54.270;12.470;2024-03-25T15:58:08;15.53;;;14.63;;
19235;SDS011;9752;54.270;12.470;2024-03-25T16:03:10;16.00;;;15.10;;
19235;SDS011;9752;54.270;12.470;2024-03-25T16:08:10;16.00;;;15.20;;
19235;SDS011;9752;54.270;12.470;2024-03-25T16:13:11;15.77;;;14.97;;
19235;SDS011;9752;54.270;12.470;2024-03-25T16:18:13;16.13;;;15.23;;
19235;SDS011;9752;54.270;12.470;2024-03-25T16:23:13;14.43;;;13.53;;
19235;SDS011;9752;54.270;12.470;2024-03-25T16:28:14;15.37;;;14.43;;
19235;SDS011;9752;54.270;12.470;2024-03-25T16:33:17;14.93;;;14.13;;
19235;SDS011;9752;54.270;12.470;2024-03-25T16:38:17;15.07;;;14.20;;
19235;SDS011;9752;54.270;12.470;2024-03-25T16:43:18;14.83;;;13.53;;
19235;SDS011;9752;54.270;12.470;2024-03-25T16:48:20;14.70;;;14.10;;
19235;SDS011;9752;54.270;12.470;2024-03-25T16:53:21;15.40;;;14.40;;
19235;SDS011;9752;54.270;12.470;2024-03-25T16:58:22;16.03;;;14.80;;
19235;SDS011;9752;54.270;12.470;2024-03-25T17:03:24;15.43;;;14.53;;
19235;SDS011;9752;54.270;12.470;2024-03-25T17:08:25;16.37;;;14.93;;
19235;SDS011;9752;54.270;12.470;2024-03-25T17:13:26;14.73;;;13.77;;
19235;SDS011;9752;54.270;12.470;2024-03-25T17:18:28;14.93;;;14.03;;
19235;SDS011;9752;54.270;12.470;2024-03-25T17:23:28;14.87;;;13.93;;
19235;SDS011;9752;54.270;12.470;2024-03-25T17:28:29;15.00;;;13.73;;
19235;SDS011;9752;54.270;12.470;2024-03-25T17:33:31;17.53;;;13.03;;
19235;SDS011;9752;54.270;12.470;2024-03-25T17:38:32;12.33;;;11.37;;
19235;SDS011;9752;54.270;12.470;2024-03-25T17:43:33;12.50;;;11.50;;
19235;SDS011;9752;54.270;12.470;2024-03-25T17:48:35;12.50;;;11.30;;
19235;SDS011;9752;54.270;12.470;2024-03-25T17:53:36;13.37;;;11.03;;
19235;SDS011;9752;54.270;12.470;2024-03-25T17:58:36;8.33;;;7.47;;
19235;SDS011;9752;54.270;12.470;2024-03-25T18:03:38;9.07;;;8.27;;
19235;SDS011;9752;54.270;12.470;2024-03-25T18:08:39;8.10;;;7.43;;
19235;SDS011;9752;54.270;12.470;2024-03-25T18:13:40;8.03;;;7.23;;
19235;SDS011;9752;54.270;12.470;2024-03-25T18:18:42;7.67;;;6.73;;
19235;SDS011;9752;54.270;12.470;2024-03-25T18:23:42;10.53;;;8.10;;
19235;SDS011;9752;54.270;12.470;2024-03-25T18:28:43;10.67;;;7.80;;
19235;SDS011;9752;54.270;12.470;2024-03-25T18:33:45;11.93;;;8.73;;
19235;SDS011;9752;54.270;12.470;2024-03-25T18:38:46;10.40;;;7.83;;
19235;SDS011;9752;54.270;12.470;2024-03-25T18:43:46;14.40;;;10.73;;
19235;SDS011;9752;54.270;12.470;2024-03-25T18:48:48;12.33;;;8.87;;
19235;SDS011;9752;54.270;12.470;2024-03-25T18:53:49;16.77;;;8.70;;
19235;SDS011;9752;54.270;12.470;2024-03-25T18:58:50;15.80;;;8.27;;
19235;SDS011;9752;54.270;12.470;2024-03-25T19:03:52;12.07;;;8.23;;
19235;SDS011;9752;54.270;12.470;2024-03-25T19:08:53;13.77;;;8.53;;
19235;SDS011;9752;54.270;12.470;2024-03-25T19:13:53;15.07;;;8.20;;
19235;SDS011;9752;54.270;12.470;2024-03-25T19:18:55;20.27;;;9.33;;
19235;SDS011;9752;54.270;12.470;2024-03-25T19:23:56;14.20;;;9.70;;
19235;SDS011;9752;54.270;12.470;2024-03-25T19:28:57;19.60;;;11.50;;
19235;SDS011;9752;54.270;12.470;2024-03-25T19:33:59;17.83;;;10.73;;
19235;SDS011;9752;54.270;12.470;2024-03-25T19:38:59;15.90;;;9.93;;
19235;SDS011;9752;54.270;12.470;2024-03-25T19:44:00;16.63;;;10.83;;
19235;SDS011;9752;54.270;12.470;2024-03-25T19:49:02;18.43;;;12.63;;
19235;SDS011;9752;54.270;12.470;2024-03-25T19:54:03;23.20;;;14.93;;
19235;SDS011;9752;54.270;12.470;2024-03-25T19:59:04;25.27;;;16.63;;
19235;SDS011;9752;54.270;12.470;2024-03-25T20:04:06;22.83;;;14.90;;
19235;SDS011;9752;54.270;12.470;2024-03-25T20:09:06;21.97;;;13.37;;
19235;SDS011;9752;54.270;12.470;2024-03-25T20:14:07;22.20;;;12.50;;
19235;SDS011;9752;54.270;12.470;2024-03-25T20:19:09;14.33;;;10.43;;
19235;SDS011;9752;54.270;12.470;2024-03-25T20:24:10;21.93;;;10.63;;
19235;SDS011;9752;54.270;12.470;2024-03-25T20:29:11;15.67;;;9.03;;
19235;SDS011;9752;54.270;12.470;2024-03-25T20:34:13;17.60;;;11.00;;
19235;SDS011;9752;54.270;12.470;2024-03-25T20:39:13;14.87;;;10.17;;
19235;SDS011;9752;54.270;12.470;2024-03-25T20:44:14;12.10;;;8.40;;
19235;SDS011;9752;54.270;12.470;2024-03-25T20:49:16;11.67;;;8.63;;
19235;SDS011;9752;54.270;12.470;2024-03-25T20:54:17;14.67;;;10.30;;
19235;SDS011;9752;54.270;12.470;2024-03-25T20:59:17;11.27;;;8.00;;
19235;SDS011;9752;54.270;12.470;2024-03-25T21:04:19;22.10;;;15.90;;
19235;SDS011;9752;54.270;12.470;2024-03-25T21:09:20;22.80;;;14.07;;
19235;SDS011;9752;54.270;12.470;2024-03-25T21:14:21;24.53;;;16.20;;
19235;SDS011;9752;54.270;12.470;2024-03-25T21:19:23;16.97;;;12.23;;
19235;SDS011;9752;54.270;12.470;2024-03-25T21:24:24;28.63;;;12.90;;
19235;SDS011;9752;54.270;12.470;2024-03-25T21:29:24;34.03;;;18.63;;
19235;SDS011;9752;54.270;12.470;2024-03-25T21:34:26;34.03;;;19.17;;
19235;SDS011;9752;54.270;12.470;2024-03-25T21:39:27;17.53;;;12.97;;
19235;SDS011;9752;54.270;12.470;2024-03-25T21:44:28;18.13;;;10.17;;
19235;SDS011;9752;54.270;12.470;2024-03-25T21:49:30;14.27;;;9.10;;
19235;SDS011;9752;54.270;12.470;2024-03-25T21:54:30;14.73;;;9.40;;
19235;SDS011;9752;54.270;12.470;2024-03-25T21:59:31;13.20;;;9.00;;
19235;SDS011;9752;54.270;12.470;2024-03-25T22:04:33;17.63;;;9.87;;
19235;SDS011;9752;54.270;12.470;2024-03-25T22:09:34;15.13;;;9.83;;
19235;SDS011;9752;54.270;12.470;2024-03-25T22:14:34;11.80;;;9.10;;
19235;SDS011;9752;54.270;12.470;2024-03-25T22:19:36;15.33;;;10.63;;
19235;SDS011;9752;54.270;12.470;2024-03-25T22:24:37;18.27;;;11.87;;
19235;SDS011;9752;54.270;12.470;2024-03-25T22:29:38;17.70;;;11.43;;
19235;SDS011;9752;54.270;12.470;2024-03-25T22:34:40;16.13;;;10.67;;
19235;SDS011;9752;54.270;12.470;2024-03-25T22:39:41;17.17;;;10.73;;
19235;SDS011;9752;54.270;12.470;2024-03-25T22:44:41;14.73;;;10.37;;
19235;SDS011;9752;54.270;12.470;2024-03-25T22:49:44;15.67;;;9.90;;
19235;SDS011;9752;54.270;12.470;2024-03-25T22:54:45;16.10;;;10.40;;
19235;SDS011;9752;54.270;12.470;2024-03-25T22:59:46;11.73;;;8.43;;
19235;SDS011;9752;54.270;12.470;2024-03-25T23:04:47;13.87;;;9.40;;
19235;SDS011;9752;54.270;12.470;2024-03-25T23:09:48;15.97;;;10.80;;
19235;SDS011;9752;54.270;12.470;2024-03-25T23:14:49;19.03;;;12.53;;
19235;SDS011;9752;54.270;12.470;2024-03-25T23:19:51;20.00;;;11.83;;
19235;SDS011;9752;54.270;12.470;2024-03-25T23:24:51;21.37;;;13.83;;
19235;SDS011;9752;54.270;12.470;2024-03-25T23:29:52;25.83;;;14.67;;
19235;SDS011;9752;54.270;12.470;2024-03-25T23:34:54;20.87;;;14.13;;
19235;SDS011;9752;54.270;12.470;2024-03-25T23:39:55;21.17;;;15.13;;
19235;SDS011;9752;54.270;12.470;2024-03-25T23:44:55;26.87;;;17.33;;
19235;SDS011;9752;54.270;12.470;2024-03-25T23:49:57;27.17;;;15.50;;
19235;SDS011;9752;54.270;12.470;2024-03-25T23:54:58;21.00;;;15.37;;
19235;SDS011;9752;54.270;12.470;2024-03-25T23:59:59;24.13;;;14.27;;
